sensor_id;sensor_type;location;lat;lon;timestamp;P1;durP1;ratioP1;P2;durP2;ratioP2
1276;SDS011;631;51.024;13.826;2024-03-25T00:02:12;12.50;;;11.90;;
1276;SDS011;631;51.024;13.826;2024-03-25T00:04:38;11.97;;;11.30;;
1276;SDS011;631;51.024;13.826;2024-03-25T00:07:04;12.87;;;12.17;;
1276;SDS011;631;51.024;13.826;2024-03-25T00:09:29;13.40;;;12.70;;
1276;SDS011;631;51.024;13.826;2024-03-25T00:11:55;12.73;;;12.13;;
1276;SDS011;631;51.024;13.826;2024-03-25T00:14:21;13.33;;;12.63;;
1276;SDS011;631;51.024;13.826;2024-03-25T00:16:47;13.20;;;12.32;;
1276;SDS011;631;51.024;13.826;2024-03-25T00:19:13;12.40;;;11.80;;
1276;SDS011;631;51.024;13.826;2024-03-25T00:21:39;14.30;;;13.60;;
1276;SDS011;631;51.024;13.826;2024-03-25T00:24:05;14.60;;;13.70;;
1276;SDS011;631;51.024;13.826;2024-03-25T00:26:31;14.60;;;13.90;;
1276;SDS011;631;51.024;13.826;2024-03-25T00:28:57;14.90;;;14.10;;
1276;SDS011;631;51.024;13.826;2024-03-25T00:31:22;14.37;;;13.63;;
1276;SDS011;631;51.024;13.826;2024-03-25T00:33:48;14.87;;;14.03;;
1276;SDS011;631;51.024;13.826;2024-03-25T00:36:14;14.30;;;13.60;;
1276;SDS011;631;51.024;13.826;2024-03-25T00:38:39;14.37;;;13.60;;
1276;SDS011;631;51.024;13.826;2024-03-25T00:41:05;14.70;;;13.90;;
1276;SDS011;631;51.024;13.826;2024-03-25T00:43:30;14.40;;;13.50;;
1276;SDS011;631;51.024;13.826;2024-03-25T00:45:56;14.20;;;13.50;;
1276;SDS011;631;51.024;13.826;2024-03-25T00:48:22;14.17;;;13.37;;
1276;SDS011;631;51.024;13.826;2024-03-25T00:50:48;15.00;;;14.10;;
1276;SDS011;631;51.024;13.826;2024-03-25T00:53:14;14.13;;;13.43;;
1276;SDS011;631;51.024;13.826;2024-03-25T00:55:39;14.80;;;14.00;;
1276;SDS011;631;51.024;13.826;2024-03-25T00:58:05;14.40;;;13.70;;
1276;SDS011;631;51.024;13.826;2024-03-25T01:00:31;13.60;;;12.90;;
1276;SDS011;631;51.024;13.826;2024-03-25T01:02:57;13.73;;;13.03;;
1276;SDS011;631;51.024;13.826;2024-03-25T01:05:22;13.57;;;12.77;;
1276;SDS011;631;51.024;13.826;2024-03-25T01:07:48;13.10;;;12.50;;
1276;SDS011;631;51.024;13.826;2024-03-25T01:10:14;13.67;;;12.97;;
1276;SDS011;631;51.024;13.826;2024-03-25T01:12:41;14.02;;;13.23;;
1276;SDS011;631;51.024;13.826;2024-03-25T01:15:07;13.53;;;12.63;;
1276;SDS011;631;51.024;13.826;2024-03-25T01:17:34;13.70;;;12.98;;
1276;SDS011;631;51.024;13.826;2024-03-25T01:20:01;13.10;;;12.40;;
1276;SDS011;631;51.024;13.826;2024-03-25T01:22:26;13.70;;;12.90;;
1276;SDS011;631;51.024;13.826;2024-03-25T01:24:52;13.80;;;13.10;;
1276;SDS011;631;51.024;13.826;2024-03-25T01:27:17;13.90;;;13.10;;
1276;SDS011;631;51.024;13.826;2024-03-25T01:29:44;14.10;;;13.30;;
1276;SDS011;631;51.024;13.826;2024-03-25T01:32:10;14.10;;;13.30;;
1276;SDS011;631;51.024;13.826;2024-03-25T01:34:35;14.07;;;13.30;;
1276;SDS011;631;51.024;13.826;2024-03-25T01:37:01;14.00;;;13.10;;
1276;SDS011;631;51.024;13.826;2024-03-25T01:39:26;13.70;;;13.00;;
1276;SDS011;631;51.024;13.826;2024-03-25T01:41:52;13.70;;;12.90;;
1276;SDS011;631;51.024;13.826;2024-03-25T01:44:17;13.00;;;12.37;;
1276;SDS011;631;51.024;13.826;2024-03-25T01:46:43;12.60;;;12.00;;
1276;SDS011;631;51.024;13.826;2024-03-25T01:49:09;13.33;;;12.70;;
1276;SDS011;631;51.024;13.826;2024-03-25T01:51:36;12.95;;;12.35;;
1276;SDS011;631;51.024;13.826;2024-03-25T01:54:03;13.85;;;13.20;;
1276;SDS011;631;51.024;13.826;2024-03-25T01:56:32;13.60;;;12.90;;
1276;SDS011;631;51.024;13.826;2024-03-25T01:58:58;13.50;;;12.80;;
1276;SDS011;631;51.024;13.826;2024-03-25T02:01:25;12.73;;;12.13;;
1276;SDS011;631;51.024;13.826;2024-03-25T02:03:52;13.10;;;12.50;;
1276;SDS011;631;51.024;13.826;2024-03-25T02:06:19;13.45;;;12.75;;
1276;SDS011;631;51.024;13.826;2024-03-25T02:08:46;14.25;;;13.45;;
1276;SDS011;631;51.024;13.826;2024-03-25T02:11:13;14.00;;;13.40;;
1276;SDS011;631;51.024;13.826;2024-03-25T02:13:39;13.70;;;13.00;;
1276;SDS011;631;51.024;13.826;2024-03-25T02:16:05;13.77;;;13.07;;
1276;SDS011;631;51.024;13.826;2024-03-25T02:18:31;13.60;;;12.90;;
1276;SDS011;631;51.024;13.826;2024-03-25T02:20:58;12.98;;;12.30;;
1276;SDS011;631;51.024;13.826;2024-03-25T02:23:24;13.20;;;12.60;;
1276;SDS011;631;51.024;13.826;2024-03-25T02:25:51;13.07;;;12.43;;
1276;SDS011;631;51.024;13.826;2024-03-25T02:28:17;13.85;;;13.15;;
1276;SDS011;631;51.024;13.826;2024-03-25T02:30:42;13.83;;;13.13;;
1276;SDS011;631;51.024;13.826;2024-03-25T02:33:08;13.30;;;12.70;;
1276;SDS011;631;51.024;13.826;2024-03-25T02:35:34;13.47;;;12.70;;
1276;SDS011;631;51.024;13.826;2024-03-25T02:38:01;13.90;;;13.20;;
1276;SDS011;631;51.024;13.826;2024-03-25T02:40:28;14.70;;;13.80;;
1276;SDS011;631;51.024;13.826;2024-03-25T02:42:54;15.10;;;14.10;;
1276;SDS011;631;51.024;13.826;2024-03-25T02:45:19;15.57;;;14.57;;
1276;SDS011;631;51.024;13.826;2024-03-25T02:47:45;15.27;;;14.17;;
1276;SDS011;631;51.024;13.826;2024-03-25T02:50:11;15.05;;;14.07;;
1276;SDS011;631;51.024;13.826;2024-03-25T02:52:37;14.50;;;13.60;;
1276;SDS011;631;51.024;13.826;2024-03-25T02:55:02;14.87;;;13.90;;
1276;SDS011;631;51.024;13.826;2024-03-25T02:57:28;15.30;;;14.30;;
1276;SDS011;631;51.024;13.826;2024-03-25T02:59:54;14.57;;;13.63;;
1276;SDS011;631;51.024;13.826;2024-03-25T03:02:19;14.80;;;13.90;;
1276;SDS011;631;51.024;13.826;2024-03-25T03:04:45;15.17;;;14.27;;
1276;SDS011;631;51.024;13.826;2024-03-25T03:07:10;14.77;;;13.97;;
1276;SDS011;631;51.024;13.826;2024-03-25T03:09:36;14.97;;;14.07;;
1276;SDS011;631;51.024;13.826;2024-03-25T03:12:02;15.38;;;14.50;;
1276;SDS011;631;51.024;13.826;2024-03-25T03:14:28;14.57;;;13.70;;
1276;SDS011;631;51.024;13.826;2024-03-25T03:16:54;15.20;;;14.40;;
1276;SDS011;631;51.024;13.826;2024-03-25T03:19:22;15.30;;;14.30;;
1276;SDS011;631;51.024;13.826;2024-03-25T03:21:51;15.38;;;14.27;;
1276;SDS011;631;51.024;13.826;2024-03-25T03:24:17;14.83;;;14.03;;
1276;SDS011;631;51.024;13.826;2024-03-25T03:26:43;15.90;;;14.90;;
1276;SDS011;631;51.024;13.826;2024-03-25T03:29:09;15.60;;;14.70;;
1276;SDS011;631;51.024;13.826;2024-03-25T03:31:35;15.50;;;14.43;;
1276;SDS011;631;51.024;13.826;2024-03-25T03:34:01;15.50;;;14.32;;
1276;SDS011;631;51.024;13.826;2024-03-25T03:36:27;15.73;;;14.73;;
1276;SDS011;631;51.024;13.826;2024-03-25T03:38:53;16.33;;;15.13;;
1276;SDS011;631;51.024;13.826;2024-03-25T03:41:19;15.90;;;14.87;;
1276;SDS011;631;51.024;13.826;2024-03-25T03:43:45;15.67;;;14.67;;
1276;SDS011;631;51.024;13.826;2024-03-25T03:46:10;15.30;;;14.40;;
1276;SDS011;631;51.024;13.826;2024-03-25T03:48:36;16.63;;;15.13;;
1276;SDS011;631;51.024;13.826;2024-03-25T03:51:03;16.75;;;15.45;;
1276;SDS011;631;51.024;13.826;2024-03-25T03:53:33;15.65;;;14.48;;
1276;SDS011;631;51.024;13.826;2024-03-25T03:56:00;15.30;;;14.30;;
1276;SDS011;631;51.024;13.826;2024-03-25T03:58:27;15.20;;;14.30;;
1276;SDS011;631;51.024;13.826;2024-03-25T04:00:53;16.67;;;15.57;;
1276;SDS011;631;51.024;13.826;2024-03-25T04:03:19;14.97;;;13.90;;
1276;SDS011;631;51.024;13.826;2024-03-25T04:05:45;15.40;;;14.40;;
1276;SDS011;631;51.024;13.826;2024-03-25T04:08:11;15.70;;;14.63;;
1276;SDS011;631;51.024;13.826;2024-03-25T04:10:37;14.90;;;13.90;;
1276;SDS011;631;51.024;13.826;2024-03-25T04:13:03;14.67;;;13.77;;
1276;SDS011;631;51.024;13.826;2024-03-25T04:15:32;14.52;;;13.65;;
1276;SDS011;631;51.024;13.826;2024-03-25T04:17:58;13.95;;;13.15;;
1276;SDS011;631;51.024;13.826;2024-03-25T04:20:23;14.40;;;13.37;;
1276;SDS011;631;51.024;13.826;2024-03-25T04:22:49;14.43;;;13.43;;
1276;SDS011;631;51.024;13.826;2024-03-25T04:25:15;14.10;;;13.30;;
1276;SDS011;631;51.024;13.826;2024-03-25T04:27:41;14.20;;;13.27;;
1276;SDS011;631;51.024;13.826;2024-03-25T04:30:08;13.90;;;13.10;;
1276;SDS011;631;51.024;13.826;2024-03-25T04:32:35;13.90;;;13.00;;
1276;SDS011;631;51.024;13.826;2024-03-25T04:35:01;13.70;;;12.90;;
1276;SDS011;631;51.024;13.826;2024-03-25T04:37:27;12.57;;;11.77;;
1276;SDS011;631;51.024;13.826;2024-03-25T04:39:53;13.20;;;12.30;;
1276;SDS011;631;51.024;13.826;2024-03-25T04:42:19;11.68;;;11.05;;
1276;SDS011;631;51.024;13.826;2024-03-25T04:44:45;12.10;;;11.40;;
1276;SDS011;631;51.024;13.826;2024-03-25T04:47:11;12.70;;;11.90;;
1276;SDS011;631;51.024;13.826;2024-03-25T04:49:36;13.43;;;12.53;;
1276;SDS011;631;51.024;13.826;2024-03-25T04:52:03;13.02;;;12.13;;
1276;SDS011;631;51.024;13.826;2024-03-25T04:54:31;13.07;;;12.18;;
1276;SDS011;631;51.024;13.826;2024-03-25T04:56:57;13.23;;;12.13;;
1276;SDS011;631;51.024;13.826;2024-03-25T04:59:22;13.43;;;12.60;;
1276;SDS011;631;51.024;13.826;2024-03-25T05:01:48;13.03;;;12.13;;
1276;SDS011;631;51.024;13.826;2024-03-25T05:04:14;13.07;;;12.33;;
1276;SDS011;631;51.024;13.826;2024-03-25T05:06:39;13.63;;;12.83;;
1276;SDS011;631;51.024;13.826;2024-03-25T05:09:05;12.23;;;11.53;;
1276;SDS011;631;51.024;13.826;2024-03-25T05:11:33;11.85;;;11.25;;
1276;SDS011;631;51.024;13.826;2024-03-25T05:13:59;12.40;;;11.70;;
1276;SDS011;631;51.024;13.826;2024-03-25T05:16:24;12.83;;;12.00;;
1276;SDS011;631;51.024;13.826;2024-03-25T05:18:50;12.20;;;11.50;;
1276;SDS011;631;51.024;13.826;2024-03-25T05:21:16;11.20;;;10.60;;
1276;SDS011;631;51.024;13.826;2024-03-25T05:23:41;11.80;;;11.20;;
1276;SDS011;631;51.024;13.826;2024-03-25T05:26:07;11.87;;;11.17;;
1276;SDS011;631;51.024;13.826;2024-03-25T05:28:33;12.47;;;11.80;;
1276;SDS011;631;51.024;13.826;2024-03-25T05:31:05;12.60;;;11.60;;
1276;SDS011;631;51.024;13.826;2024-03-25T05:33:32;12.40;;;11.70;;
1276;SDS011;631;51.024;13.826;2024-03-25T05:35:58;12.33;;;11.60;;
1276;SDS011;631;51.024;13.826;2024-03-25T05:38:24;12.23;;;11.43;;
1276;SDS011;631;51.024;13.826;2024-03-25T05:40:50;12.57;;;11.70;;
1276;SDS011;631;51.024;13.826;2024-03-25T05:43:16;11.40;;;10.50;;
1276;SDS011;631;51.024;13.826;2024-03-25T05:45:49;12.23;;;11.47;;
1276;SDS011;631;51.024;13.826;2024-03-25T05:48:15;12.40;;;11.60;;
1276;SDS011;631;51.024;13.826;2024-03-25T05:50:41;12.33;;;11.63;;
1276;SDS011;631;51.024;13.826;2024-03-25T05:53:07;11.50;;;10.83;;
1276;SDS011;631;51.024;13.826;2024-03-25T05:55:33;12.57;;;11.77;;
1276;SDS011;631;51.024;13.826;2024-03-25T05:57:59;11.90;;;11.20;;
1276;SDS011;631;51.024;13.826;2024-03-25T06:00:24;12.43;;;11.73;;
1276;SDS011;631;51.024;13.826;2024-03-25T06:02:51;12.48;;;11.80;;
1276;SDS011;631;51.024;13.826;2024-03-25T06:05:18;12.25;;;11.55;;
1276;SDS011;631;51.024;13.826;2024-03-25T06:07:44;12.90;;;12.20;;
1276;SDS011;631;51.024;13.826;2024-03-25T06:10:10;12.60;;;11.80;;
1276;SDS011;631;51.024;13.826;2024-03-25T06:12:35;11.90;;;11.30;;
1276;SDS011;631;51.024;13.826;2024-03-25T06:15:01;12.00;;;11.40;;
1276;SDS011;631;51.024;13.826;2024-03-25T06:17:27;12.93;;;12.03;;
1276;SDS011;631;51.024;13.826;2024-03-25T06:19:52;11.57;;;10.97;;
1276;SDS011;631;51.024;13.826;2024-03-25T06:22:18;12.80;;;12.00;;
1276;SDS011;631;51.024;13.826;2024-03-25T06:24:44;12.57;;;11.77;;
1276;SDS011;631;51.024;13.826;2024-03-25T06:27:09;12.43;;;11.70;;
1276;SDS011;631;51.024;13.826;2024-03-25T06:29:35;13.47;;;12.67;;
1276;SDS011;631;51.024;13.826;2024-03-25T06:32:01;12.77;;;11.57;;
1276;SDS011;631;51.024;13.826;2024-03-25T06:34:45;13.03;;;12.20;;
1276;SDS011;631;51.024;13.826;2024-03-25T06:37:10;13.50;;;12.27;;
1276;SDS011;631;51.024;13.826;2024-03-25T06:39:36;12.07;;;11.17;;
1276;SDS011;631;51.024;13.826;2024-03-25T06:42:02;11.57;;;10.87;;
1276;SDS011;631;51.024;13.826;2024-03-25T06:44:27;12.23;;;11.53;;
1276;SDS011;631;51.024;13.826;2024-03-25T06:46:53;12.07;;;11.37;;
1276;SDS011;631;51.024;13.826;2024-03-25T06:49:19;11.70;;;10.87;;
1276;SDS011;631;51.024;13.826;2024-03-25T06:51:45;10.93;;;10.43;;
1276;SDS011;631;51.024;13.826;2024-03-25T06:54:10;11.77;;;11.07;;
1276;SDS011;631;51.024;13.826;2024-03-25T06:56:37;11.30;;;10.70;;
1276;SDS011;631;51.024;13.826;2024-03-25T06:59:02;11.90;;;11.30;;
1276;SDS011;631;51.024;13.826;2024-03-25T07:01:28;11.30;;;10.70;;
1276;SDS011;631;51.024;13.826;2024-03-25T07:03:54;11.13;;;10.50;;
1276;SDS011;631;51.024;13.826;2024-03-25T07:06:19;10.70;;;10.10;;
1276;SDS011;631;51.024;13.826;2024-03-25T07:08:45;11.20;;;10.60;;
1276;SDS011;631;51.024;13.826;2024-03-25T07:11:12;11.50;;;10.90;;
1276;SDS011;631;51.024;13.826;2024-03-25T07:13:38;10.87;;;10.30;;
1276;SDS011;631;51.024;13.826;2024-03-25T07:16:04;10.80;;;10.30;;
1276;SDS011;631;51.024;13.826;2024-03-25T07:18:30;10.50;;;9.90;;
1276;SDS011;631;51.024;13.826;2024-03-25T07:20:55;10.73;;;10.13;;
1276;SDS011;631;51.024;13.826;2024-03-25T07:23:21;11.53;;;10.93;;
1276;SDS011;631;51.024;13.826;2024-03-25T07:25:46;10.47;;;9.97;;
1276;SDS011;631;51.024;13.826;2024-03-25T07:28:12;11.40;;;10.77;;
1276;SDS011;631;51.024;13.826;2024-03-25T07:30:37;10.97;;;10.37;;
1276;SDS011;631;51.024;13.826;2024-03-25T07:33:03;11.90;;;11.20;;
1276;SDS011;631;51.024;13.826;2024-03-25T07:35:29;12.20;;;11.43;;
1276;SDS011;631;51.024;13.826;2024-03-25T07:37:55;12.37;;;11.67;;
1276;SDS011;631;51.024;13.826;2024-03-25T07:40:21;12.60;;;11.60;;
1276;SDS011;631;51.024;13.826;2024-03-25T07:42:47;11.50;;;10.63;;
1276;SDS011;631;51.024;13.826;2024-03-25T07:45:14;11.17;;;10.43;;
1276;SDS011;631;51.024;13.826;2024-03-25T07:47:40;10.73;;;10.23;;
1276;SDS011;631;51.024;13.826;2024-03-25T07:50:05;11.90;;;11.30;;
1276;SDS011;631;51.024;13.826;2024-03-25T07:52:31;11.73;;;11.13;;
1276;SDS011;631;51.024;13.826;2024-03-25T07:54:57;12.17;;;11.37;;
1276;SDS011;631;51.024;13.826;2024-03-25T07:57:23;11.10;;;10.50;;
1276;SDS011;631;51.024;13.826;2024-03-25T07:59:49;10.40;;;9.80;;
1276;SDS011;631;51.024;13.826;2024-03-25T08:02:14;12.00;;;11.40;;
1276;SDS011;631;51.024;13.826;2024-03-25T08:04:40;12.10;;;11.50;;
1276;SDS011;631;51.024;13.826;2024-03-25T08:07:06;11.57;;;10.87;;
1276;SDS011;631;51.024;13.826;2024-03-25T08:09:32;11.70;;;11.00;;
1276;SDS011;631;51.024;13.826;2024-03-25T08:11:58;12.77;;;11.97;;
1276;SDS011;631;51.024;13.826;2024-03-25T08:14:23;12.53;;;11.90;;
1276;SDS011;631;51.024;13.826;2024-03-25T08:16:49;12.83;;;12.03;;
1276;SDS011;631;51.024;13.826;2024-03-25T08:19:14;11.77;;;11.10;;
1276;SDS011;631;51.024;13.826;2024-03-25T08:21:40;11.27;;;10.67;;
1276;SDS011;631;51.024;13.826;2024-03-25T08:24:06;11.40;;;10.80;;
1276;SDS011;631;51.024;13.826;2024-03-25T08:26:32;12.00;;;11.33;;
1276;SDS011;631;51.024;13.826;2024-03-25T08:28:57;11.10;;;10.50;;
1276;SDS011;631;51.024;13.826;2024-03-25T08:31:23;10.27;;;9.70;;
1276;SDS011;631;51.024;13.826;2024-03-25T08:33:48;11.53;;;10.70;;
1276;SDS011;631;51.024;13.826;2024-03-25T08:36:14;12.77;;;11.80;;
1276;SDS011;631;51.024;13.826;2024-03-25T08:38:40;11.40;;;10.50;;
1276;SDS011;631;51.024;13.826;2024-03-25T08:41:05;12.20;;;11.47;;
1276;SDS011;631;51.024;13.826;2024-03-25T08:43:31;12.40;;;11.80;;
1276;SDS011;631;51.024;13.826;2024-03-25T08:45:56;12.50;;;11.70;;
1276;SDS011;631;51.024;13.826;2024-03-25T08:48:23;12.90;;;12.10;;
1276;SDS011;631;51.024;13.826;2024-03-25T08:50:48;12.00;;;11.30;;
1276;SDS011;631;51.024;13.826;2024-03-25T08:53:14;12.33;;;11.63;;
1276;SDS011;631;51.024;13.826;2024-03-25T08:55:46;12.03;;;11.27;;
1276;SDS011;631;51.024;13.826;2024-03-25T08:58:14;12.20;;;11.50;;
1276;SDS011;631;51.024;13.826;2024-03-25T09:00:41;12.03;;;11.40;;
1276;SDS011;631;51.024;13.826;2024-03-25T09:03:07;12.20;;;11.50;;
1276;SDS011;631;51.024;13.826;2024-03-25T09:05:33;12.00;;;11.40;;
1276;SDS011;631;51.024;13.826;2024-03-25T09:07:59;12.00;;;11.30;;
1276;SDS011;631;51.024;13.826;2024-03-25T09:10:25;12.43;;;11.73;;
1276;SDS011;631;51.024;13.826;2024-03-25T09:13:10;13.13;;;12.43;;
1276;SDS011;631;51.024;13.826;2024-03-25T09:15:35;11.77;;;11.17;;
1276;SDS011;631;51.024;13.826;2024-03-25T09:18:01;13.90;;;12.77;;
1276;SDS011;631;51.024;13.826;2024-03-25T09:20:26;12.90;;;12.17;;
1276;SDS011;631;51.024;13.826;2024-03-25T09:22:52;13.10;;;12.30;;
1276;SDS011;631;51.024;13.826;2024-03-25T09:25:18;12.67;;;11.80;;
1276;SDS011;631;51.024;13.826;2024-03-25T09:27:47;13.50;;;12.57;;
1276;SDS011;631;51.024;13.826;2024-03-25T09:30:13;12.43;;;11.73;;
1276;SDS011;631;51.024;13.826;2024-03-25T09:32:42;12.80;;;12.10;;
1276;SDS011;631;51.024;13.826;2024-03-25T09:35:08;13.70;;;12.90;;
1276;SDS011;631;51.024;13.826;2024-03-25T09:37:34;13.33;;;12.53;;
1276;SDS011;631;51.024;13.826;2024-03-25T09:40:01;13.10;;;12.40;;
1276;SDS011;631;51.024;13.826;2024-03-25T09:42:28;12.70;;;11.80;;
1276;SDS011;631;51.024;13.826;2024-03-25T09:45:19;12.33;;;11.73;;
1276;SDS011;631;51.024;13.826;2024-03-25T09:47:50;12.03;;;11.43;;
1276;SDS011;631;51.024;13.826;2024-03-25T09:50:16;13.07;;;12.27;;
1276;SDS011;631;51.024;13.826;2024-03-25T09:52:50;13.27;;;12.37;;
1276;SDS011;631;51.024;13.826;2024-03-25T09:55:17;11.97;;;11.37;;
1276;SDS011;631;51.024;13.826;2024-03-25T09:57:43;12.90;;;12.30;;
1276;SDS011;631;51.024;13.826;2024-03-25T10:00:09;12.33;;;11.63;;
1276;SDS011;631;51.024;13.826;2024-03-25T10:02:36;12.80;;;12.20;;
1276;SDS011;631;51.024;13.826;2024-03-25T10:05:04;11.60;;;10.93;;
1276;SDS011;631;51.024;13.826;2024-03-25T10:07:33;12.93;;;12.13;;
1276;SDS011;631;51.024;13.826;2024-03-25T10:09:59;13.20;;;12.30;;
1276;SDS011;631;51.024;13.826;2024-03-25T10:12:28;13.67;;;12.77;;
1276;SDS011;631;51.024;13.826;2024-03-25T10:14:54;13.00;;;12.20;;
1276;SDS011;631;51.024;13.826;2024-03-25T10:17:22;13.13;;;12.43;;
1276;SDS011;631;51.024;13.826;2024-03-25T10:19:47;14.00;;;13.10;;
1276;SDS011;631;51.024;13.826;2024-03-25T10:22:13;14.13;;;13.23;;
1276;SDS011;631;51.024;13.826;2024-03-25T10:24:45;15.43;;;14.33;;
1276;SDS011;631;51.024;13.826;2024-03-25T10:27:17;13.93;;;13.07;;
1276;SDS011;631;51.024;13.826;2024-03-25T10:29:45;14.03;;;13.23;;
1276;SDS011;631;51.024;13.826;2024-03-25T10:32:12;13.10;;;12.40;;
1276;SDS011;631;51.024;13.826;2024-03-25T10:34:38;13.80;;;12.90;;
1276;SDS011;631;51.024;13.826;2024-03-25T10:37:04;12.70;;;12.10;;
1276;SDS011;631;51.024;13.826;2024-03-25T10:39:33;14.10;;;13.30;;
1276;SDS011;631;51.024;13.826;2024-03-25T10:42:04;12.87;;;12.10;;
1276;SDS011;631;51.024;13.826;2024-03-25T10:44:30;13.83;;;13.03;;
1276;SDS011;631;51.024;13.826;2024-03-25T10:47:01;13.37;;;12.47;;
1276;SDS011;631;51.024;13.826;2024-03-25T10:49:34;14.23;;;13.43;;
1276;SDS011;631;51.024;13.826;2024-03-25T10:52:07;13.50;;;12.73;;
1276;SDS011;631;51.024;13.826;2024-03-25T10:54:33;13.03;;;12.20;;
1276;SDS011;631;51.024;13.826;2024-03-25T10:57:00;12.67;;;12.07;;
1276;SDS011;631;51.024;13.826;2024-03-25T10:59:28;12.37;;;11.67;;
1276;SDS011;631;51.024;13.826;2024-03-25T11:01:55;12.17;;;11.40;;
1276;SDS011;631;51.024;13.826;2024-03-25T11:04:21;12.23;;;11.50;;
1276;SDS011;631;51.024;13.826;2024-03-25T11:06:49;13.07;;;12.37;;
1276;SDS011;631;51.024;13.826;2024-03-25T11:09:21;12.90;;;12.20;;
1276;SDS011;631;51.024;13.826;2024-03-25T11:11:51;12.00;;;11.20;;
1276;SDS011;631;51.024;13.826;2024-03-25T11:14:18;11.47;;;10.87;;
1276;SDS011;631;51.024;13.826;2024-03-25T11:16:50;12.40;;;11.70;;
1276;SDS011;631;51.024;13.826;2024-03-25T11:19:27;11.87;;;11.27;;
1276;SDS011;631;51.024;13.826;2024-03-25T11:21:54;12.70;;;11.97;;
1276;SDS011;631;51.024;13.826;2024-03-25T11:24:31;12.57;;;11.97;;
1276;SDS011;631;51.024;13.826;2024-03-25T11:26:56;16.63;;;15.50;;
1276;SDS011;631;51.024;13.826;2024-03-25T11:29:22;12.17;;;11.47;;
1276;SDS011;631;51.024;13.826;2024-03-25T11:31:50;12.30;;;11.60;;
1276;SDS011;631;51.024;13.826;2024-03-25T11:34:18;13.63;;;12.83;;
1276;SDS011;631;51.024;13.826;2024-03-25T11:36:44;13.40;;;12.40;;
1276;SDS011;631;51.024;13.826;2024-03-25T11:39:11;13.20;;;12.50;;
1276;SDS011;631;51.024;13.826;2024-03-25T11:41:41;13.80;;;12.87;;
1276;SDS011;631;51.024;13.826;2024-03-25T11:44:10;12.50;;;11.87;;
1276;SDS011;631;51.024;13.826;2024-03-25T11:46:40;12.47;;;11.77;;
1276;SDS011;631;51.024;13.826;2024-03-25T11:49:06;13.60;;;12.80;;
1276;SDS011;631;51.024;13.826;2024-03-25T11:51:34;12.63;;;12.00;;
1276;SDS011;631;51.024;13.826;2024-03-25T11:54:03;12.73;;;12.13;;
1276;SDS011;631;51.024;13.826;2024-03-25T11:56:30;13.80;;;13.10;;
1276;SDS011;631;51.024;13.826;2024-03-25T11:58:56;13.67;;;12.97;;
1276;SDS011;631;51.024;13.826;2024-03-25T12:01:22;13.30;;;12.60;;
1276;SDS011;631;51.024;13.826;2024-03-25T12:03:48;13.40;;;12.70;;
1276;SDS011;631;51.024;13.826;2024-03-25T12:06:13;12.90;;;12.30;;
1276;SDS011;631;51.024;13.826;2024-03-25T12:08:39;13.43;;;12.73;;
1276;SDS011;631;51.024;13.826;2024-03-25T12:11:24;12.10;;;11.50;;
1276;SDS011;631;51.024;13.826;2024-03-25T12:13:50;12.87;;;12.17;;
1276;SDS011;631;51.024;13.826;2024-03-25T12:16:16;13.50;;;12.57;;
1276;SDS011;631;51.024;13.826;2024-03-25T12:18:42;11.90;;;11.30;;
1276;SDS011;631;51.024;13.826;2024-03-25T12:21:08;12.80;;;12.10;;
1276;SDS011;631;51.024;13.826;2024-03-25T12:23:35;12.70;;;12.10;;
1276;SDS011;631;51.024;13.826;2024-03-25T12:26:01;13.20;;;12.50;;
1276;SDS011;631;51.024;13.826;2024-03-25T12:28:27;11.90;;;11.40;;
1276;SDS011;631;51.024;13.826;2024-03-25T12:30:54;12.20;;;11.60;;
1276;SDS011;631;51.024;13.826;2024-03-25T12:33:23;12.50;;;11.83;;
1276;SDS011;631;51.024;13.826;2024-03-25T12:35:50;13.17;;;12.57;;
1276;SDS011;631;51.024;13.826;2024-03-25T12:38:27;11.80;;;11.20;;
1276;SDS011;631;51.024;13.826;2024-03-25T12:41:03;12.33;;;11.67;;
1276;SDS011;631;51.024;13.826;2024-03-25T12:43:33;12.90;;;12.40;;
1276;SDS011;631;51.024;13.826;2024-03-25T12:46:00;13.17;;;12.50;;
1276;SDS011;631;51.024;13.826;2024-03-25T12:48:26;12.80;;;12.20;;
1276;SDS011;631;51.024;13.826;2024-03-25T12:50:52;13.63;;;12.93;;
1276;SDS011;631;51.024;13.826;2024-03-25T12:53:21;12.63;;;11.93;;
1276;SDS011;631;51.024;13.826;2024-03-25T12:55:46;13.43;;;12.50;;
1276;SDS011;631;51.024;13.826;2024-03-25T12:58:12;11.93;;;11.43;;
1276;SDS011;631;51.024;13.826;2024-03-25T13:00:38;12.63;;;11.93;;
1276;SDS011;631;51.024;13.826;2024-03-25T13:03:05;12.77;;;12.17;;
1276;SDS011;631;51.024;13.826;2024-03-25T13:05:33;12.43;;;11.83;;
1276;SDS011;631;51.024;13.826;2024-03-25T13:07:59;11.80;;;11.20;;
1276;SDS011;631;51.024;13.826;2024-03-25T13:10:24;13.03;;;12.10;;
1276;SDS011;631;51.024;13.826;2024-03-25T13:12:50;12.40;;;11.80;;
1276;SDS011;631;51.024;13.826;2024-03-25T13:15:16;12.17;;;11.67;;
1276;SDS011;631;51.024;13.826;2024-03-25T13:17:41;11.80;;;11.20;;
1276;SDS011;631;51.024;13.826;2024-03-25T13:20:07;12.80;;;12.00;;
1276;SDS011;631;51.024;13.826;2024-03-25T13:22:33;11.87;;;11.27;;
1276;SDS011;631;51.024;13.826;2024-03-25T13:24:59;12.23;;;11.57;;
1276;SDS011;631;51.024;13.826;2024-03-25T13:27:25;12.00;;;11.40;;
1276;SDS011;631;51.024;13.826;2024-03-25T13:29:51;11.70;;;11.10;;
1276;SDS011;631;51.024;13.826;2024-03-25T13:32:18;11.73;;;11.23;;
1276;SDS011;631;51.024;13.826;2024-03-25T13:34:44;12.17;;;11.43;;
1276;SDS011;631;51.024;13.826;2024-03-25T13:37:10;11.70;;;11.20;;
1276;SDS011;631;51.024;13.826;2024-03-25T13:39:36;12.37;;;11.67;;
1276;SDS011;631;51.024;13.826;2024-03-25T13:42:02;11.53;;;10.93;;
1276;SDS011;631;51.024;13.826;2024-03-25T13:44:28;11.30;;;10.70;;
1276;SDS011;631;51.024;13.826;2024-03-25T13:46:54;11.30;;;10.70;;
1276;SDS011;631;51.024;13.826;2024-03-25T13:49:19;11.30;;;10.80;;
1276;SDS011;631;51.024;13.826;2024-03-25T13:51:47;11.43;;;10.87;;
1276;SDS011;631;51.024;13.826;2024-03-25T13:54:13;11.67;;;10.90;;
1276;SDS011;631;51.024;13.826;2024-03-25T13:56:39;12.17;;;11.57;;
1276;SDS011;631;51.024;13.826;2024-03-25T13:59:06;10.40;;;10.00;;
1276;SDS011;631;51.024;13.826;2024-03-25T14:01:32;11.50;;;10.80;;
1276;SDS011;631;51.024;13.826;2024-03-25T14:03:58;11.90;;;11.30;;
1276;SDS011;631;51.024;13.826;2024-03-25T14:06:24;11.60;;;11.10;;
1276;SDS011;631;51.024;13.826;2024-03-25T14:08:51;10.27;;;9.67;;
1276;SDS011;631;51.024;13.826;2024-03-25T14:11:16;10.80;;;10.30;;
1276;SDS011;631;51.024;13.826;2024-03-25T14:13:42;11.40;;;10.87;;
1276;SDS011;631;51.024;13.826;2024-03-25T14:16:08;11.40;;;10.80;;
1276;SDS011;631;51.024;13.826;2024-03-25T14:18:33;11.13;;;10.60;;
1276;SDS011;631;51.024;13.826;2024-03-25T14:20:59;11.30;;;10.80;;
1276;SDS011;631;51.024;13.826;2024-03-25T14:23:25;9.77;;;9.37;;
1276;SDS011;631;51.024;13.826;2024-03-25T14:25:50;11.17;;;10.67;;
1276;SDS011;631;51.024;13.826;2024-03-25T14:28:16;11.70;;;11.20;;
1276;SDS011;631;51.024;13.826;2024-03-25T14:30:41;11.30;;;10.60;;
1276;SDS011;631;51.024;13.826;2024-03-25T14:33:07;11.30;;;10.70;;
1276;SDS011;631;51.024;13.826;2024-03-25T14:35:33;11.63;;;11.03;;
1276;SDS011;631;51.024;13.826;2024-03-25T14:37:58;11.63;;;11.03;;
1276;SDS011;631;51.024;13.826;2024-03-25T14:40:24;11.40;;;10.60;;
1276;SDS011;631;51.024;13.826;2024-03-25T14:42:50;11.70;;;11.10;;
1276;SDS011;631;51.024;13.826;2024-03-25T14:45:15;12.10;;;11.40;;